Time;durP1;ratioP1;P1;durP2;ratioP2;P2;SDS_P1;SDS_P2;PMS_P1;PMS_P2;Temp;Humidity;BMP_temperature;BMP_pressure;BME280_temperature;BME280_humidity;BME280_pressure;Samples;Min_cycle;Max_cycle;Signal;HPM_P1;HPM_P2
2022/12/26 00:02:11;;;;;;;1.15;0.73;;;18.20;66.40;;;;;;7403930;19;19986;-63
2022/12/26 00:04:43;;;;;;;0.85;0.20;;;18.20;66.50;;;;;;7405780;19;19915;-63
2022/12/26 00:07:16;;;;;;;1.10;0.40;;;18.20;67.00;;;;;;7401905;19;19914;-63
2022/12/26 00:09:45;;;;;;;1.00;0.60;;;18.20;66.50;;;;;;7404350;19;19930;-63
2022/12/26 00:12:14;;;;;;;1.13;0.45;;;18.10;66.50;;;;;;7405430;19;19915;-63
2022/12/26 00:14:51;;;;;;;1.00;0.20;;;18.10;66.50;;;;;;7404297;19;19914;-63
2022/12/26 00:17:20;;;;;;;1.15;0.75;;;18.10;66.50;;;;;;7405225;19;19938;-63
2022/12/26 00:19:49;;;;;;;1.42;0.70;;;18.10;66.50;;;;;;7404773;19;19914;-63
2022/12/26 00:22:18;;;;;;;0.85;0.30;;;18.00;66.50;;;;;;7407573;19;19934;-63
2022/12/26 00:24:50;;;;;;;1.00;0.22;;;18.00;66.60;;;;;;7404612;19;19938;-63
2022/12/26 00:27:19;;;;;;;0.98;0.20;;;18.00;66.70;;;;;;7404054;19;19970;-63
2022/12/26 00:29:52;;;;;;;1.83;0.63;;;18.00;66.70;;;;;;7403313;19;19914;-64
2022/12/26 00:32:21;;;;;;;1.38;0.98;;;17.90;66.70;;;;;;7404174;19;20383;-63
2022/12/26 00:34:50;;;;;;;1.67;0.32;;;17.90;66.80;;;;;;7404671;19;19936;-63
2022/12/26 00:37:19;;;;;;;1.38;0.90;;;17.90;66.90;;;;;;7404543;19;19919;-63
2022/12/26 00:39:48;;;;;;;0.90;0.22;;;17.80;67.00;;;;;;7404211;19;19915;-63
2022/12/26 00:42:19;;;;;;;1.00;0.60;;;17.80;67.00;;;;;;7404192;19;19934;-63
2022/12/26 00:44:52;;;;;;;1.52;0.70;;;17.80;67.00;;;;;;7404112;19;19914;-63
2022/12/26 00:47:21;;;;;;;1.50;0.50;;;17.80;67.10;;;;;;7403539;19;19910;-64
2022/12/26 00:49:50;;;;;;;1.00;0.75;;;17.80;67.10;;;;;;7404522;19;19926;-63
2022/12/26 00:52:19;;;;;;;1.00;0.43;;;17.70;67.10;;;;;;7403530;19;19915;-63
2022/12/26 00:54:50;;;;;;;1.33;0.80;;;17.70;67.10;;;;;;7404046;19;19914;-64
2022/12/26 00:57:19;;;;;;;1.00;0.30;;;17.70;67.10;;;;;;7403785;19;19925;-63
2022/12/26 00:59:49;;;;;;;0.70;0.10;;;17.70;67.10;;;;;;7403516;19;19966;-64
2022/12/26 01:05:05;;;;;;;1.25;0.85;;;17.80;67.10;;;;;;7402742;19;20228;-63
2022/12/26 01:07:35;;;;;;;1.20;0.38;;;17.80;67.10;;;;;;7402811;19;20408;-63
2022/12/26 01:10:05;;;;;;;1.25;0.77;;;17.80;67.10;;;;;;7401590;19;20267;-63
2022/12/26 01:12:34;;;;;;;;;;;17.90;67.10;;;;;;7406036;19;19914;-63
2022/12/26 01:15:03;;;;;;;0.70;0.30;;;17.90;67.20;;;;;;7402614;19;19927;-63
2022/12/26 01:17:35;;;;;;;1.25;0.40;;;17.90;67.00;;;;;;7402934;19;19906;-63
2022/12/26 01:20:05;;;;;;;1.05;0.43;;;18.00;67.00;;;;;;7410198;19;19933;-64
2022/12/26 01:22:36;;;;;;;0.70;0.32;;;18.10;67.50;;;;;;7409844;19;20330;-63
2022/12/26 01:25:06;;;;;;;1.20;0.60;;;18.10;66.80;;;;;;7409549;19;20240;-63
2022/12/26 01:27:35;;;;;;;0.82;0.20;;;18.20;66.80;;;;;;7408720;19;19921;-63
2022/12/26 01:30:05;;;;;;;1.00;0.20;;;18.20;66.70;;;;;;7407153;19;19919;-63
2022/12/26 01:32:36;;;;;;;;;;;18.20;66.60;;;;;;7411472;19;19922;-63
2022/12/26 01:35:06;;;;;;;0.85;0.32;;;18.30;66.70;;;;;;7409585;19;19934;-63
2022/12/26 01:37:35;;;;;;;0.95;0.22;;;18.20;66.50;;;;;;7409492;19;19914;-63
2022/12/26 01:40:05;;;;;;;1.33;0.88;;;18.30;66.50;;;;;;7409156;19;20296;-63
2022/12/26 01:42:39;;;;;;;0.88;0.30;;;18.30;66.50;;;;;;7409309;19;19914;-63
2022/12/26 01:45:21;;;;;;;1.10;0.30;;;18.30;66.50;;;;;;7409075;19;20008;-63
2022/12/26 01:47:57;;;;;;;0.93;0.20;;;18.30;66.50;;;;;;7408303;19;19915;-63
2022/12/26 01:50:33;;;;;;;1.20;0.50;;;18.30;66.50;;;;;;7409546;19;19939;-63
2022/12/26 01:53:07;;;;;;;1.20;0.68;;;18.30;66.50;;;;;;7409180;19;20259;-63
2022/12/26 01:55:48;;;;;;;1.10;0.45;;;18.30;66.40;;;;;;7408784;19;19921;-63
2022/12/26 01:58:23;;;;;;;1.13;0.50;;;18.30;66.40;;;;;;7408920;19;19919;-63
2022/12/26 02:00:53;;;;;;;1.08;0.75;;;18.20;66.30;;;;;;7408594;19;19918;-63
2022/12/26 02:06:08;;;;;;;0.93;0.40;;;18.20;66.40;;;;;;7406828;19;19918;-63
2022/12/26 02:08:39;;;;;;;1.45;0.80;;;18.20;66.40;;;;;;7407613;19;19918;-63
2022/12/26 02:11:14;;;;;;;1.00;0.20;;;18.20;66.40;;;;;;7408336;19;20335;-63
2022/12/26 02:13:44;;;;;;;1.23;0.43;;;18.20;66.50;;;;;;7408348;19;20347;-63
2022/12/26 02:16:17;;;;;;;0.77;0.20;;;18.10;66.50;;;;;;7406223;19;19923;-63
2022/12/26 02:18:49;;;;;;;1.23;0.43;;;18.10;66.50;;;;;;7409569;19;19926;-63
2022/12/26 02:21:44;;;;;;;1.10;0.40;;;18.00;66.60;;;;;;7408179;19;19948;-63
2022/12/26 02:24:39;;;;;;;1.30;0.25;;;18.00;66.70;;;;;;7406373;19;19940;-62
2022/12/26 02:27:35;;;;;;;1.27;0.75;;;18.00;66.70;;;;;;7407885;19;19918;-63
2022/12/26 02:30:36;;;;;;;1.13;0.30;;;18.00;66.80;;;;;;7403488;19;20331;-63
2022/12/26 02:33:27;;;;;;;1.10;0.50;;;17.90;66.80;;;;;;7407306;19;19919;-64
2022/12/26 02:36:22;;;;;;;0.90;0.20;;;17.90;67.00;;;;;;7407920;19;19926;-63
2022/12/26 02:39:03;;;;;;;1.10;0.57;;;17.90;67.00;;;;;;7407911;19;19922;-63
2022/12/26 02:41:40;;;;;;;;;;;17.80;67.00;;;;;;7409728;19;20332;-63
2022/12/26 02:47:13;;;;;;;0.80;0.20;;;17.80;67.20;;;;;;7407560;19;19955;-63
2022/12/26 03:15:23;;;;;;;0.77;0.32;;;17.90;67.10;;;;;;7405763;19;19923;-64
2022/12/26 03:17:54;;;;;;;1.17;0.65;;;17.90;67.10;;;;;;7406700;19;19940;-63
2022/12/26 03:20:27;;;;;;;1.25;0.55;;;18.00;67.00;;;;;;7410545;19;19919;-63
2022/12/26 03:23:02;;;;;;;0.85;0.32;;;18.00;66.90;;;;;;7407234;19;19918;-64
2022/12/26 03:28:24;;;;;;;1.42;1.33;;;18.10;66.80;;;;;;7405261;19;19952;-63
2022/12/26 03:30:51;;;;;;;1.23;0.70;;;18.20;66.80;;;;;;7406414;19;19941;-63
2022/12/26 03:36:08;;;;;;;0.77;0.30;;;18.30;66.70;;;;;;7407064;19;19910;-63
2022/12/26 03:38:50;;;;;;;0.88;0.22;;;18.30;66.60;;;;;;7406116;19;19911;-63
2022/12/26 04:46:22;;;;;;;1.00;0.20;;;17.80;67.20;;;;;;7404135;19;19911;-62
2022/12/26 04:51:36;;;;;;;0.82;0.38;;;17.70;67.20;;;;;;7404089;19;19926;-63
2022/12/26 04:54:06;;;;;;;1.15;0.45;;;17.70;67.20;;;;;;7405635;19;19974;-63
2022/12/26 04:56:35;;;;;;;1.10;0.30;;;17.70;67.20;;;;;;7410626;19;19915;-63
2022/12/26 04:59:04;;;;;;;0.82;0.22;;;17.70;67.30;;;;;;7410500;19;19918;-63
2022/12/26 05:09:42;;;;;;;;;;;17.80;67.30;;;;;;7410259;19;19918;-63
2022/12/26 05:12:11;;;;;;;0.90;0.35;;;17.90;67.30;;;;;;7409984;19;19935;-63
2022/12/26 05:14:40;;;;;;;1.00;0.30;;;17.90;67.10;;;;;;7409951;19;19930;-63
2022/12/26 05:30:54;;;;;;;1.10;0.60;;;18.20;66.80;;;;;;7410067;19;19937;-63
2022/12/26 05:36:08;;;;;;;0.88;0.10;;;18.20;66.70;;;;;;7409620;19;19931;-63
2022/12/26 05:38:45;;;;;;;0.90;0.20;;;18.20;66.70;;;;;;7409364;19;19929;-63
2022/12/26 05:41:14;;;;;;;0.80;0.10;;;18.20;66.70;;;;;;7410278;19;19931;-63
2022/12/26 05:43:43;;;;;;;0.70;0.22;;;18.20;66.60;;;;;;7409306;19;19978;-63
2022/12/26 05:46:13;;;;;;;;;;;18.20;66.60;;;;;;7411708;19;19953;-63
2022/12/26 05:48:44;;;;;;;1.58;0.77;;;18.20;66.70;;;;;;7411603;19;19921;-63
2022/12/26 05:51:15;;;;;;;0.90;0.20;;;18.20;66.60;;;;;;7408963;19;19922;-63
2022/12/26 05:53:44;;;;;;;;;;;18.20;66.60;;;;;;7411538;19;20371;-63
2022/12/26 05:56:15;;;;;;;1.05;0.30;;;18.20;66.60;;;;;;7408900;19;19914;-63
2022/12/26 05:58:44;;;;;;;1.08;0.63;;;18.20;66.60;;;;;;7408774;19;19945;-63
2022/12/26 06:01:17;;;;;;;0.90;0.35;;;18.20;66.60;;;;;;7408731;19;20276;-63
2022/12/26 06:03:52;;;;;;;1.60;1.13;;;18.10;66.50;;;;;;7408129;19;20247;-63
2022/12/26 06:06:22;;;;;;;0.73;0.20;;;18.10;66.60;;;;;;7408852;19;19921;-63
2022/12/26 06:08:55;;;;;;;0.95;0.57;;;18.10;66.60;;;;;;7407441;19;19941;-63
2022/12/26 06:11:28;;;;;;;0.93;0.28;;;18.10;66.70;;;;;;7408593;19;20350;-63
2022/12/26 06:13:57;;;;;;;1.05;0.38;;;18.00;66.70;;;;;;7408544;19;20008;-63
2022/12/26 06:16:26;;;;;;;1.10;0.30;;;18.00;66.70;;;;;;7410397;19;19954;-63
2022/12/26 06:18:59;;;;;;;1.25;0.47;;;18.00;66.80;;;;;;7408644;19;19936;-63
2022/12/26 06:21:28;;;;;;;0.98;0.50;;;17.90;66.90;;;;;;7407938;19;19911;-63
2022/12/26 06:24:03;;;;;;;0.93;0.32;;;17.90;67.00;;;;;;7408031;19;19911;-63
2022/12/26 06:26:32;;;;;;;0.85;0.22;;;17.90;67.00;;;;;;7408425;19;19910;-63
2022/12/26 06:29:11;;;;;;;1.02;0.43;;;17.90;67.10;;;;;;7407152;19;19918;-63
2022/12/26 06:31:40;;;;;;;0.77;0.20;;;17.80;67.10;;;;;;7407822;19;19921;-63
2022/12/26 06:34:13;;;;;;;1.27;0.30;;;17.80;67.10;;;;;;7407547;19;19918;-63
2022/12/26 06:37:02;;;;;;;1.52;0.40;;;17.80;67.20;;;;;;7406430;19;19915;-64
2022/12/26 06:39:51;;;;;;;0.95;0.30;;;17.80;67.30;;;;;;7406134;19;19917;-63
2022/12/26 06:42:20;;;;;;;1.25;0.40;;;17.80;67.30;;;;;;7407857;19;19922;-63
2022/12/26 06:44:49;;;;;;;1.00;0.30;;;17.70;67.20;;;;;;7407618;19;20335;-64
2022/12/26 06:47:19;;;;;;;1.35;0.43;;;17.70;67.20;;;;;;7410598;19;20335;-63
2022/12/26 06:50:01;;;;;;;1.10;0.57;;;17.70;67.20;;;;;;7406180;19;19911;-63
2022/12/26 06:52:32;;;;;;;0.93;0.25;;;17.70;67.20;;;;;;7407258;19;19914;-63
2022/12/26 06:55:03;;;;;;;1.00;0.32;;;17.70;67.20;;;;;;7407330;19;20007;-63
2022/12/26 06:57:32;;;;;;;0.93;0.30;;;17.80;67.30;;;;;;7407384;19;19921;-62
2022/12/26 07:00:01;;;;;;;1.13;0.20;;;17.80;67.80;;;;;;7407457;19;19978;-63
2022/12/26 07:02:29;;;;;;;1.35;0.90;;;17.80;67.30;;;;;;7406538;19;19919;-63
2022/12/26 07:05:01;;;;;;;1.20;0.57;;;17.80;67.20;;;;;;7408177;19;19915;-63
2022/12/26 07:07:30;;;;;;;1.17;0.47;;;17.90;67.20;;;;;;7405033;19;19922;-63
2022/12/26 07:09:59;;;;;;;1.00;0.20;;;17.90;67.10;;;;;;7405269;19;20379;-63
2022/12/26 07:12:28;;;;;;;1.13;0.40;;;18.00;67.10;;;;;;7407208;19;19907;-64
2022/12/26 07:14:57;;;;;;;0.90;0.20;;;18.00;67.10;;;;;;7406064;19;20367;-64
2022/12/26 07:17:26;;;;;;;1.10;0.30;;;18.00;66.90;;;;;;7405787;19;19922;-63
2022/12/26 07:19:55;;;;;;;1.10;0.40;;;18.10;66.90;;;;;;7406476;19;19915;-63
2022/12/26 07:22:27;;;;;;;1.83;1.30;;;18.20;66.80;;;;;;7406402;19;19919;-63
2022/12/26 07:24:56;;;;;;;1.20;0.22;;;18.20;66.80;;;;;;7406742;19;19927;-63
2022/12/26 07:27:25;;;;;;;1.50;0.63;;;18.20;66.70;;;;;;7406688;19;19907;-63
2022/12/26 07:29:54;;;;;;;1.10;0.77;;;18.20;66.60;;;;;;7404508;19;19922;-63
2022/12/26 07:32:23;;;;;;;0.88;0.32;;;18.30;66.60;;;;;;7406102;19;19974;-63
2022/12/26 07:34:52;;;;;;;1.30;0.88;;;18.30;66.60;;;;;;7406915;19;20371;-63
2022/12/26 07:37:21;;;;;;;1.50;0.80;;;18.30;67.20;;;;;;7405977;19;19926;-63
2022/12/26 07:39:53;;;;;;;1.42;0.43;;;18.20;66.50;;;;;;7406411;19;19914;-63
2022/12/26 07:42:22;;;;;;;2.10;0.68;;;18.30;66.50;;;;;;7406361;19;19914;-63
2022/12/26 07:44:51;;;;;;;0.90;0.32;;;18.30;66.60;;;;;;7406872;19;19923;-63
2022/12/26 07:47:20;;;;;;;0.85;0.28;;;18.20;66.50;;;;;;7406172;19;19935;-63
2022/12/26 07:49:49;;;;;;;1.20;0.57;;;18.20;66.50;;;;;;7405297;19;20339;-63
2022/12/26 07:52:19;;;;;;;1.20;0.30;;;18.20;66.50;;;;;;7406384;19;19917;-63
2022/12/26 07:54:48;;;;;;;1.27;0.38;;;18.20;66.50;;;;;;7405914;19;19918;-63
2022/12/26 07:57:20;;;;;;;1.45;0.32;;;18.20;66.50;;;;;;7405406;19;19974;-63
2022/12/26 07:59:49;;;;;;;1.15;0.30;;;18.20;66.50;;;;;;7405478;19;19928;-63
2022/12/26 08:02:18;;;;;;;1.63;0.75;;;18.20;66.50;;;;;;7406026;19;19918;-63
2022/12/26 08:04:48;;;;;;;1.50;0.98;;;18.20;66.60;;;;;;7405431;19;19918;-63
2022/12/26 08:07:32;;;;;;;1.15;0.77;;;18.10;66.50;;;;;;7405262;19;20322;-63
2022/12/26 08:10:22;;;;;;;1.15;0.55;;;18.10;66.60;;;;;;7402676;19;20336;-63
2022/12/26 08:13:13;;;;;;;1.33;0.40;;;18.10;66.70;;;;;;7403633;19;19918;-63
2022/12/26 08:15:43;;;;;;;1.23;0.43;;;18.00;66.70;;;;;;7404729;19;19911;-63
2022/12/26 08:18:12;;;;;;;1.10;0.35;;;18.00;66.80;;;;;;7405070;19;19918;-63
2022/12/26 08:21:01;;;;;;;1.42;1.00;;;17.90;66.80;;;;;;7403357;19;19930;-63
2022/12/26 08:23:50;;;;;;;1.27;0.35;;;17.90;66.80;;;;;;7403435;19;20347;-63
2022/12/26 08:26:22;;;;;;;1.27;0.93;;;17.90;66.90;;;;;;7404589;19;19915;-63
2022/12/26 08:28:54;;;;;;;1.20;0.28;;;17.80;66.90;;;;;;7401119;19;19942;-63
2022/12/26 08:31:23;;;;;;;1.13;0.30;;;17.80;67.00;;;;;;7404693;19;19915;-63
2022/12/26 08:33:55;;;;;;;;;;;17.80;67.00;;;;;;7406664;19;19926;-63
2022/12/26 08:36:35;;;;;;;1.00;0.22;;;17.80;67.10;;;;;;7405092;19;19918;-63
2022/12/26 08:39:04;;;;;;;1.27;0.52;;;17.70;67.20;;;;;;7404607;19;19918;-63
2022/12/26 08:41:34;;;;;;;0.95;0.43;;;17.70;67.20;;;;;;7404342;19;20382;-63
2022/12/26 08:44:05;;;;;;;1.25;0.60;;;17.70;67.20;;;;;;7406026;19;20476;-64
2022/12/26 08:46:35;;;;;;;1.33;0.30;;;17.70;67.20;;;;;;7404592;19;19911;-63
2022/12/26 08:49:05;;;;;;;1.08;0.68;;;17.80;67.20;;;;;;7403921;19;20256;-63
2022/12/26 08:51:34;;;;;;;1.02;0.40;;;17.80;67.10;;;;;;7403488;19;19926;-63
2022/12/26 08:54:03;;;;;;;1.60;0.20;;;17.80;67.20;;;;;;7404610;19;19919;-63
2022/12/26 08:56:33;;;;;;;1.20;0.47;;;17.80;67.10;;;;;;7404159;19;19919;-63
2022/12/26 08:59:05;;;;;;;1.20;0.70;;;17.80;67.10;;;;;;7403755;19;19921;-63
2022/12/26 09:01:34;;;;;;;1.25;0.40;;;17.80;67.10;;;;;;7402226;19;19922;-63
2022/12/26 09:04:05;;;;;;;1.20;0.30;;;17.90;67.60;;;;;;7401788;19;19922;-63
2022/12/26 09:06:36;;;;;;;1.17;0.52;;;18.00;67.00;;;;;;7403992;19;19946;-63
2022/12/26 09:09:06;;;;;;;1.63;0.80;;;18.00;67.00;;;;;;7403569;19;20276;-63
2022/12/26 09:11:36;;;;;;;1.13;0.45;;;18.00;66.90;;;;;;7403831;19;19913;-63
2022/12/26 09:14:08;;;;;;;1.15;0.43;;;18.10;66.90;;;;;;7403187;19;19919;-63
2022/12/26 09:16:41;;;;;;;0.90;0.32;;;18.10;66.80;;;;;;7401483;19;19993;-63
2022/12/26 09:19:15;;;;;;;1.20;0.80;;;18.10;66.80;;;;;;7402946;19;19933;-63
2022/12/26 09:21:45;;;;;;;1.45;0.98;;;18.20;66.70;;;;;;7403043;19;19925;-63
2022/12/26 09:24:16;;;;;;;1.73;0.43;;;18.20;66.60;;;;;;7403086;19;19919;-63
2022/12/26 09:26:45;;;;;;;1.02;0.25;;;18.20;66.60;;;;;;7402764;19;19921;-63
2022/12/26 09:29:17;;;;;;;1.25;0.68;;;18.20;66.60;;;;;;7402067;19;19991;-63
2022/12/26 09:31:47;;;;;;;2.00;0.40;;;18.20;66.50;;;;;;7402969;19;19919;-63
2022/12/26 09:34:16;;;;;;;1.10;0.50;;;18.20;66.60;;;;;;7402428;19;19921;-63
2022/12/26 09:36:45;;;;;;;1.40;0.20;;;18.20;66.60;;;;;;7402609;19;20013;-63
2022/12/26 09:39:15;;;;;;;1.48;1.00;;;18.20;66.60;;;;;;7403332;19;19918;-63
2022/12/26 09:42:02;;;;;;;1.00;0.40;;;18.20;66.60;;;;;;7409421;19;19958;-63
2022/12/26 09:44:49;;;;;;;1.40;0.43;;;18.10;66.50;;;;;;7412221;19;20297;-63
2022/12/26 09:47:31;;;;;;;1.95;1.08;;;18.10;66.50;;;;;;7409607;19;19915;-63
2022/12/26 09:50:05;;;;;;;1.55;0.90;;;18.10;66.50;;;;;;7408371;19;19919;-63
2022/12/26 09:52:46;;;;;;;1.27;0.50;;;18.10;66.50;;;;;;7409211;19;19914;-63
2022/12/26 09:55:41;;;;;;;1.08;0.30;;;18.10;66.50;;;;;;7409499;19;19935;-63
2022/12/26 09:58:20;;;;;;;1.42;0.35;;;18.00;66.50;;;;;;7408249;19;19926;-63
2022/12/26 10:00:57;;;;;;;1.10;0.43;;;18.00;66.50;;;;;;7409061;19;19930;-63
2022/12/26 10:03:26;;;;;;;1.17;0.70;;;18.00;66.60;;;;;;7408539;19;20269;-63
2022/12/26 10:06:15;;;;;;;1.17;0.30;;;18.00;66.60;;;;;;7409365;19;19923;-63
2022/12/26 10:09:07;;;;;;;1.50;0.80;;;17.90;66.70;;;;;;7408464;19;19929;-63
2022/12/26 10:11:51;;;;;;;1.17;0.40;;;17.90;66.70;;;;;;7406250;19;19931;-63
2022/12/26 10:14:28;;;;;;;1.38;0.32;;;17.90;66.90;;;;;;7411805;19;19921;-63
2022/12/26 10:17:04;;;;;;;1.55;0.60;;;17.80;66.80;;;;;;7407974;19;19907;-63
2022/12/26 10:19:50;;;;;;;1.48;0.20;;;17.80;66.90;;;;;;7408861;19;19923;-63
2022/12/26 10:22:41;;;;;;;1.90;0.30;;;17.80;67.00;;;;;;7408252;19;19927;-63
2022/12/26 10:25:18;;;;;;;1.45;1.00;;;17.80;67.10;;;;;;7407797;19;19919;-63
2022/12/26 10:27:53;;;;;;;0.75;0.20;;;17.80;67.10;;;;;;7408315;19;19918;-63
2022/12/26 10:30:26;;;;;;;1.00;0.20;;;17.70;67.20;;;;;;7407389;19;19981;-63
2022/12/26 10:33:05;;;;;;;1.10;0.40;;;17.70;67.20;;;;;;7407597;19;19925;-64
2022/12/26 10:35:37;;;;;;;1.25;0.43;;;17.70;67.20;;;;;;7407526;19;19914;-63
2022/12/26 10:38:14;;;;;;;2.03;0.73;;;17.70;67.20;;;;;;7407954;19;19914;-63
2022/12/26 10:40:46;;;;;;;1.98;0.25;;;17.70;67.20;;;;;;7407595;19;19935;-63
2022/12/26 10:43:30;;;;;;;2.30;0.93;;;17.70;67.10;;;;;;7407819;19;20281;-63
2022/12/26 10:46:18;;;;;;;1.90;0.90;;;17.80;67.20;;;;;;7408394;19;19922;-63
2022/12/26 10:48:50;;;;;;;1.40;0.30;;;17.80;67.10;;;;;;7407482;19;19978;-63
2022/12/26 10:51:19;;;;;;;1.42;0.52;;;17.80;67.10;;;;;;7403568;19;19919;-63
2022/12/26 10:53:51;;;;;;;1.40;0.22;;;17.80;67.00;;;;;;7405968;19;20400;-63
2022/12/26 10:56:21;;;;;;;1.70;0.60;;;17.80;66.90;;;;;;7407602;19;19915;-63
2022/12/26 10:59:01;;;;;;;2.25;0.65;;;17.90;66.80;;;;;;7407659;19;19926;-63
2022/12/26 11:01:36;;;;;;;1.13;0.75;;;17.90;66.70;;;;;;7408025;19;19931;-63
2022/12/26 11:04:16;;;;;;;1.67;0.20;;;18.00;66.60;;;;;;7406695;19;20565;-63
2022/12/26 11:06:46;;;;;;;5.07;0.75;;;18.10;66.50;;;;;;7406943;19;19915;-63
2022/12/26 11:09:39;;;;;;;3.28;0.82;;;18.10;66.50;;;;;;7407151;19;19926;-63
2022/12/26 11:12:21;;;;;;;1.73;0.52;;;18.10;66.30;;;;;;7406235;19;20251;-63
2022/12/26 11:14:51;;;;;;;2.92;0.70;;;18.10;66.30;;;;;;7406584;19;20276;-63
2022/12/26 11:17:28;;;;;;;1.33;0.43;;;18.20;66.30;;;;;;7407250;19;19928;-63
2022/12/26 11:20:31;;;;;;;1.17;0.22;;;18.20;66.20;;;;;;7406640;19;19914;-63
2022/12/26 11:23:22;;;;;;;1.48;0.63;;;18.20;66.10;;;;;;7406358;19;19942;-63
2022/12/26 11:25:53;;;;;;;1.23;0.10;;;18.20;66.00;;;;;;7407427;19;19994;-63
2022/12/26 11:28:29;;;;;;;1.58;0.75;;;18.20;66.00;;;;;;7405874;19;19914;-63
2022/12/26 11:30:59;;;;;;;3.00;0.70;;;18.20;66.00;;;;;;7405993;19;19918;-63
2022/12/26 11:33:31;;;;;;;1.83;0.45;;;18.20;65.90;;;;;;7406109;19;19931;-63
2022/12/26 11:36:24;;;;;;;1.42;0.10;;;18.10;65.90;;;;;;7404280;19;19922;-63
2022/12/26 11:38:57;;;;;;;2.50;0.73;;;18.10;65.90;;;;;;7406561;19;19922;-63
2022/12/26 11:41:39;;;;;;;1.77;0.50;;;18.10;66.00;;;;;;7406664;19;19918;-63
2022/12/26 11:44:19;;;;;;;1.92;0.22;;;18.10;66.00;;;;;;7409142;19;20358;-63
2022/12/26 11:46:52;;;;;;;1.90;0.32;;;18.10;65.90;;;;;;7405933;19;20428;-63
2022/12/26 11:49:28;;;;;;;2.13;0.30;;;18.00;65.90;;;;;;7405982;19;19922;-63
2022/12/26 11:52:02;;;;;;;2.03;0.60;;;18.00;66.00;;;;;;7404632;19;19910;-63
2022/12/26 11:54:37;;;;;;;1.25;0.32;;;18.00;65.90;;;;;;7405920;19;20362;-63
2022/12/26 11:57:16;;;;;;;1.50;0.70;;;18.00;66.00;;;;;;7406179;19;20339;-63
2022/12/26 11:59:47;;;;;;;2.17;0.50;;;17.90;66.00;;;;;;7405785;19;19911;-63
2022/12/26 12:02:18;;;;;;;;;;;17.90;66.00;;;;;;7407592;19;19911;-63
2022/12/26 12:04:48;;;;;;;1.85;0.60;;;17.90;66.00;;;;;;7406055;19;19915;-63
2022/12/26 12:07:40;;;;;;;1.95;0.70;;;17.80;66.10;;;;;;7405116;19;19919;-63
2022/12/26 12:10:34;;;;;;;2.00;0.70;;;17.80;66.10;;;;;;7405933;19;19911;-63
2022/12/26 12:13:09;;;;;;;1.50;0.32;;;17.80;66.10;;;;;;7408256;19;20330;-63
2022/12/26 12:15:48;;;;;;;2.17;0.77;;;17.70;66.10;;;;;;7403582;19;19923;-64
2022/12/26 12:18:22;;;;;;;1.42;0.70;;;17.70;66.20;;;;;;7405546;19;19922;-63
2022/12/26 12:21:04;;;;;;;1.88;0.22;;;17.70;66.20;;;;;;7405092;19;19914;-63
2022/12/26 12:24:04;;;;;;;1.40;0.85;;;17.70;66.20;;;;;;7405142;19;19915;-62
2022/12/26 12:26:37;;;;;;;1.88;0.93;;;17.70;66.20;;;;;;7405229;19;19942;-63
2022/12/26 12:29:51;;;;;;;1.83;0.63;;;17.70;66.20;;;;;;7404134;19;19917;-63
2022/12/26 12:32:28;;;;;;;1.80;0.52;;;17.70;66.10;;;;;;7401278;19;19911;-63
2022/12/26 12:35:27;;;;;;;2.03;0.50;;;17.70;66.10;;;;;;7404516;19;19911;-63
2022/12/26 12:38:20;;;;;;;2.28;0.40;;;17.70;66.10;;;;;;7404507;19;19944;-63
2022/12/26 12:40:59;;;;;;;1.10;0.65;;;17.70;66.00;;;;;;7404553;19;19925;-62
2022/12/26 12:43:37;;;;;;;1.60;0.35;;;17.80;66.00;;;;;;7408668;19;19930;-63
2022/12/26 12:46:15;;;;;;;1.67;0.43;;;17.80;65.90;;;;;;7404159;19;19923;-62
2022/12/26 12:49:10;;;;;;;2.00;0.32;;;17.90;65.90;;;;;;7404179;19;20339;-63
2022/12/26 12:51:47;;;;;;;3.35;0.80;;;17.90;65.80;;;;;;7401578;19;19921;-63
2022/12/26 12:54:40;;;;;;;2.40;0.60;;;17.90;65.70;;;;;;7404088;19;19911;-63
2022/12/26 12:57:19;;;;;;;2.30;0.22;;;18.00;65.70;;;;;;7401703;19;19914;-63
2022/12/26 13:00:13;;;;;;;3.05;0.65;;;18.10;65.60;;;;;;7404061;19;19917;-63
2022/12/26 13:02:47;;;;;;;1.88;0.30;;;18.10;65.50;;;;;;7403844;19;19922;-64
2022/12/26 13:05:40;;;;;;;1.15;0.32;;;18.10;65.40;;;;;;7403775;19;19921;-63
2022/12/26 13:08:15;;;;;;;2.20;0.70;;;18.20;65.30;;;;;;7403595;19;20265;-63
2022/12/26 13:10:50;;;;;;;2.35;0.32;;;18.20;65.30;;;;;;7403499;19;19913;-63
2022/12/26 13:13:29;;;;;;;0.90;0.13;;;18.20;65.20;;;;;;7406973;19;19937;-63
2022/12/26 13:16:04;;;;;;;1.02;0.13;;;18.20;65.20;;;;;;7406961;19;19923;-63
2022/12/26 13:18:39;;;;;;;1.20;0.98;;;18.20;65.10;;;;;;7409819;19;20247;-63
2022/12/26 13:21:11;;;;;;;1.75;0.35;;;18.20;65.10;;;;;;7409920;19;19918;-63
2022/12/26 13:26:31;;;;;;;2.83;0.52;;;18.20;65.00;;;;;;7409614;19;20385;-63
2022/12/26 13:29:12;;;;;;;2.17;0.50;;;18.10;64.90;;;;;;7408724;19;19915;-63
2022/12/26 13:31:42;;;;;;;2.28;0.82;;;18.10;64.90;;;;;;7408318;19;19914;-63
2022/12/26 13:34:16;;;;;;;2.55;0.40;;;18.10;64.90;;;;;;7409061;19;19925;-63
2022/12/26 13:36:47;;;;;;;2.30;0.82;;;18.10;64.90;;;;;;7409261;19;19954;-64
2022/12/26 13:39:36;;;;;;;2.22;0.28;;;18.10;64.90;;;;;;7409257;19;19914;-63
2022/12/26 13:45:56;;;;;;;0.85;0.28;;;18.00;64.80;;;;;;7409247;19;19910;-63
2022/12/26 13:49:00;;;;;;;1.98;0.82;;;18.00;64.80;;;;;;7408930;19;20319;-63
2022/12/26 13:52:00;;;;;;;2.42;0.60;;;18.00;64.80;;;;;;7407904;19;19910;-63
2022/12/26 13:54:30;;;;;;;1.58;0.47;;;18.00;64.90;;;;;;7405777;19;20012;-63
2022/12/26 13:57:23;;;;;;;3.33;0.20;;;17.90;64.90;;;;;;7408445;19;19910;-63
2022/12/26 14:00:18;;;;;;;2.30;0.30;;;17.90;64.90;;;;;;7408963;19;19922;-63
2022/12/26 14:03:18;;;;;;;2.55;0.13;;;17.90;64.90;;;;;;7408610;19;19915;-63
2022/12/26 14:05:56;;;;;;;;;;;17.90;64.90;;;;;;7411054;19;19931;-63
2022/12/26 14:08:40;;;;;;;1.85;0.73;;;17.80;64.90;;;;;;7409137;19;19938;-63
2022/12/26 14:11:24;;;;;;;2.47;0.45;;;17.80;65.00;;;;;;7409144;19;19986;-62
2022/12/26 14:14:08;;;;;;;1.73;0.20;;;17.80;64.90;;;;;;7408805;19;19934;-63
2022/12/26 14:16:47;;;;;;;2.60;0.50;;;17.80;65.00;;;;;;7406661;19;19922;-63
2022/12/26 14:19:37;;;;;;;2.22;0.30;;;17.80;65.00;;;;;;7408538;19;19914;-63
2022/12/26 14:22:24;;;;;;;2.58;0.40;;;17.80;65.00;;;;;;7408273;19;19919;-63
2022/12/26 14:25:05;;;;;;;1.05;0.10;;;17.80;65.00;;;;;;7407994;19;19930;-63
2022/12/26 14:27:42;;;;;;;1.85;0.15;;;17.70;65.00;;;;;;7405791;19;19918;-63
2022/12/26 14:30:26;;;;;;;1.48;0.52;;;17.70;65.00;;;;;;7406008;19;19935;-63
2022/12/26 14:33:08;;;;;;;2.08;0.32;;;17.70;65.10;;;;;;7405846;19;20003;-63
2022/12/26 14:35:46;;;;;;;2.53;0.43;;;17.70;65.10;;;;;;7406311;19;19919;-63
2022/12/26 14:38:31;;;;;;;3.10;0.32;;;17.70;65.10;;;;;;7407805;19;19978;-63
2022/12/26 14:41:05;;;;;;;3.00;0.95;;;17.60;65.00;;;;;;7411784;19;19920;-63
2022/12/26 14:43:36;;;;;;;2.47;0.65;;;17.60;65.00;;;;;;7407630;19;19982;-63
2022/12/26 14:46:11;;;;;;;0.85;0.20;;;17.70;65.00;;;;;;7407951;19;19990;-63
2022/12/26 14:48:52;;;;;;;2.15;0.50;;;17.70;64.90;;;;;;7407623;19;20323;-63
2022/12/26 14:51:41;;;;;;;2.63;0.73;;;17.70;64.80;;;;;;7407019;19;19952;-63
2022/12/26 14:54:45;;;;;;;1.58;0.75;;;17.70;64.80;;;;;;7407213;19;19922;-63
2022/12/26 14:57:47;;;;;;;2.88;0.77;;;17.70;64.60;;;;;;7405539;19;19926;-63
2022/12/26 15:00:31;;;;;;;1.23;0.60;;;17.80;64.60;;;;;;7407527;19;19922;-63
2022/12/26 15:03:25;;;;;;;1.90;0.50;;;17.80;64.50;;;;;;7405437;19;19970;-63
2022/12/26 15:06:03;;;;;;;1.80;0.38;;;17.90;64.50;;;;;;7407207;19;19974;-63
2022/12/26 15:08:51;;;;;;;2.08;0.40;;;17.90;64.50;;;;;;7405370;19;19982;-63
2022/12/26 15:11:55;;;;;;;2.20;0.73;;;18.00;64.40;;;;;;7411277;19;19911;-63
2022/12/26 15:14:52;;;;;;;1.35;0.50;;;18.00;64.40;;;;;;7407009;19;19921;-63
2022/12/26 15:17:29;;;;;;;1.80;0.43;;;18.10;64.30;;;;;;7406531;19;19938;-63
2022/12/26 15:20:28;;;;;;;3.00;0.52;;;18.10;64.20;;;;;;7404999;19;19911;-63
2022/12/26 15:23:32;;;;;;;1.67;0.32;;;18.10;64.10;;;;;;7406601;19;19907;-63
2022/12/26 15:26:20;;;;;;;2.45;0.10;;;18.10;64.00;;;;;;7406401;19;19942;-63
2022/12/26 15:29:03;;;;;;;;;;;18.20;64.00;;;;;;7408474;19;19952;-63
2022/12/26 15:31:54;;;;;;;2.15;0.80;;;18.20;64.10;;;;;;7406370;19;19918;-63
2022/12/26 15:34:43;;;;;;;2.97;0.70;;;18.20;64.00;;;;;;7405290;19;19974;-63
2022/12/26 15:37:22;;;;;;;1.90;0.63;;;18.20;64.00;;;;;;7404878;19;19923;-64
2022/12/26 15:39:59;;;;;;;2.45;0.70;;;18.10;63.90;;;;;;7408996;19;19915;-63
2022/12/26 15:42:41;;;;;;;3.08;0.70;;;18.10;63.90;;;;;;7405805;19;20714;-62
2022/12/26 15:45:27;;;;;;;1.65;0.60;;;18.10;63.90;;;;;;7404324;19;19915;-63
2022/12/26 15:48:04;;;;;;;1.50;0.15;;;18.00;63.90;;;;;;7406034;19;19925;-63
2022/12/26 15:50:39;;;;;;;2.42;0.43;;;18.00;63.90;;;;;;7406299;19;19992;-63
2022/12/26 15:53:21;;;;;;;2.45;0.60;;;18.00;64.00;;;;;;7404551;19;20007;-63
2022/12/26 15:56:20;;;;;;;2.28;0.43;;;18.00;64.00;;;;;;7405939;19;19974;-63
2022/12/26 15:59:11;;;;;;;1.55;0.68;;;17.90;63.90;;;;;;7406045;19;20350;-63